Details From NCAI - Aitutaki
To NSFA - Faleolo Intl
Flight Number -
Tags Generated
Created
Modified
Stats Distance 767 nm / 1,420 km
Max Altitude 0 ft / 0 m
Waypoints 3
Social Downloads 0
Likes 0
Share VATSIM

Download

Looking for another format? Having issues loading an existing format? Contact us
Advertisement - Login to hide

Notes

Generated

Route

NCAI FA NSFA

ID Type Via Altitude Latitude Longitude Leg Dist Tot Dist Heading (true) Name
O NCAI APT - 0 ft / 0 m -18.82753˚ -159.77681˚ - 0 nm - -
FA VOR - 0 ft / 0 m -13.82867˚ -171.99283˚ 765 nm 765 nm 291° / 295° FALEOLO VOR-DME
O NSFA APT - 0 ft / 0 m -13.83021˚ -172.02224˚ 1 nm 766 nm 267° / 267° -

Altitude Profile

Advertisement - Login to hide

Weather


0- 5 10 15 20 25 30 35+ Temperature / ° C

Clouds and Precipitation
Forecast for 2017-12-16 00:00 UTC. Updated an hour ago

Ground ~20,000 ft ~40,000 ft Winds

NCAI

Details ICAO NCAI (AIT)
Name Aitutaki
Region Cook Islands
Timezone Unknown (UTC+0.0)
Stats Elevation 20 ft / 6 m (AMSL)
Location -18.837078° -159.761026°
Runways 1
Magnetic Variation 13.144° E

METAR

NCAI 151900Z AUTO 28004KT 230V320 //// ////// 26/26 Q1007.0

Decode

TAF

Not found

Departure Runways

ID Width Length Bearing (true) Bearing (mag) Surface Threshold Offset Overrun Length
14 102 ft / 31 m 6,008 ft / 1,831 m 154.20° 141.06° Asphalt 0 ft / 0 m 0 ft / 0 m
32 102 ft / 31 m 6,008 ft / 1,831 m 334.20° 321.06° Asphalt 0 ft / 0 m 0 ft / 0 m

NSFA

Details ICAO NSFA (APW)
Name Faleolo International
Region American Samoa
Timezone Pacific/Apia (UTC+14.0)
Stats Elevation 58 ft / 18 m (AMSL)
Location -13.830023° -172.009102°
Runways 1
Magnetic Variation 11.657° E

METAR

NSFA 151900Z 10003KT 9999 FEW022 BKN150 27/24 Q1008

Decode

TAF

TAF NSFA 151715Z 1518/1618 10007KT 9999 SCT020 BKN045 PROB40 TEMPO 1600/1606 5000 TSRA FEW017CB TEMPO 1606/1618 3000 TSRA BKN015 FEW017CB

Decode

Destination Runways

ID Width Length Bearing (true) Bearing (mag) Surface Threshold Offset Overrun Length
08 148 ft / 45 m 10,361 ft / 3,158 m 89.30° 77.64° Asphalt 515 ft / 157 m 0 ft / 0 m
26 148 ft / 45 m 10,361 ft / 3,158 m 269.30° 257.64° Asphalt 0 ft / 0 m 102 ft / 31 m

Approach Navaids

Runway Type Ident Frequency Range Bearing (true) Bearing (mag) Slope Elevation
08 Localiser IAP 109.90 MHz 18 nm / 33 km 89.50° 77.84° - 9 ft / 3 m (AMSL)
08 Glidescope IAP 109.90 MHz 10 nm / 19 km 89.30° 77.64° 3.00° 58 ft / 18 m (AMSL)
08 DME IAP 109.90 MHz 18 nm / 33 km - - - 58 ft / 18 m (AMSL)